This is the latest recevied weather packets stored in our database for station/object DK6GC-10. If no packets are shown the sender has not sent any weather packets the latest 10 day(s).
| Time | Temp. | Humidity | Pressure | Rain* | Wind** | Luminosity | Snow |
|---|---|---|---|---|---|---|---|
| 1788577219 | 16.11° C | 88% | 1021.2 hPa | - | - | - | - |
| 1788575419 | 16.67° C | 92% | 1021.6 hPa | - | - | - | - |
| 1788574519 | 16.67° C | 92% | 1021.6 hPa | - | - | - | - |
| 1788573619 | 17.78° C | 93% | 1021.7 hPa | - | - | - | - |
| 1788572718 | 18.89° C | 99% | 1021.4 hPa | - | - | - | - |
| 1788571818 | 19.44° C | 94% | 1021.2 hPa | - | - | - | - |
| 1788570918 | 21.67° C | 70% | 1020.3 hPa | - | - | - | - |
| 1788570018 | 22.22° C | 66% | 1020 hPa | - | - | - | - |
| 1788569118 | 22.78° C | 65% | 1019.8 hPa | - | - | - | - |
| 1788568218 | 22.78° C | 65% | 1019.5 hPa | - | - | - | - |
| 1788567317 | 22.78° C | 65% | 1019.4 hPa | - | - | - | - |
| 1788566434 | 22.78° C | 65% | 1019.3 hPa | - | - | - | - |
| 1788565533 | 22.78° C | 65% | 1019.3 hPa | - | - | - | - |
| 1788564633 | 22.78° C | 65% | 1019 hPa | - | - | - | - |
| 1788563733 | 22.78° C | 63% | 1018.9 hPa | - | - | - | - |
| 1788562833 | 23.33° C | 63% | 1018.9 hPa | - | - | - | - |
| 1788561933 | 23.33° C | 63% | 1018.7 hPa | - | - | - | - |
| 1788561033 | 22.22° C | 66% | 1018.7 hPa | - | - | - | - |
| 1788560132 | 22.78° C | 63% | 1018.5 hPa | - | - | - | - |
| 1788559232 | 22.78° C | 60% | 1018.4 hPa | - | - | - | - |
| 1788558331 | 23.33° C | 59% | 1018.1 hPa | - | - | - | - |
| 1788557431 | 23.89° C | 55% | 1017.7 hPa | - | - | - | - |
| 1788556531 | 24.44° C | 51% | 1017.4 hPa | - | - | - | - |
| 1788555631 | 23.89° C | 54% | 1017 hPa | - | - | - | - |
| 1788554731 | 23.89° C | 55% | 1017 hPa | - | - | - | - |
* Rain since midnight (hover to see other rain measurements)
** Current wind speed in m/s (hover to see current wind gust speed)